createdAt,value
2023-04-04T00:00:06.560Z,97182.88
2023-04-04T00:02:35.320Z,97142.75
2023-04-04T00:05:05.212Z,97171.75
2023-04-04T00:07:33.625Z,97154.06
2023-04-04T00:10:02.066Z,97126.59
2023-04-04T00:12:34.848Z,97167.41
2023-04-04T00:15:07.586Z,97103.31
2023-04-04T00:17:36.015Z,97168.09
2023-04-04T00:20:08.049Z,97161.41
2023-04-04T00:22:40.398Z,97155.56
2023-04-04T00:25:16.897Z,97144.69
2023-04-04T00:27:49.236Z,97183.31
2023-04-04T00:30:18.934Z,97100.78
2023-04-04T00:32:49.530Z,97158.47
2023-04-04T00:35:38.068Z,96896.69
2023-04-04T00:38:14.065Z,97112.44
2023-04-04T00:40:50.442Z,97142.44
2023-04-04T00:43:20.608Z,97166.53
2023-04-04T00:45:55.844Z,97147.94
2023-04-04T00:48:27.990Z,97143.22
2023-04-04T00:50:59.384Z,97144.81
2023-04-04T00:53:34.765Z,97126.81
2023-04-04T00:56:03.447Z,97149.78
2023-04-04T00:58:40.089Z,97147.16
2023-04-04T01:01:11.536Z,97144.91
2023-04-04T01:03:43.298Z,97137.06
2023-04-04T01:06:15.906Z,97106.91
2023-04-04T01:08:44.514Z,97134.75
2023-04-04T01:11:13.295Z,97128.00
2023-04-04T01:13:46.940Z,97134.59
2023-04-04T01:16:17.522Z,97085.16
2023-04-04T01:18:48.027Z,97134.34
2023-04-04T01:21:19.501Z,97133.41
2023-04-04T01:23:53.183Z,97136.34
2023-04-04T01:26:27.162Z,97133.44
2023-04-04T01:28:55.280Z,97130.19
2023-04-04T01:31:28.176Z,97126.09
2023-04-04T01:34:00.856Z,97108.84
2023-04-04T01:36:37.169Z,97126.53
2023-04-04T01:39:12.990Z,97134.50
2023-04-04T01:41:53.627Z,97118.75
2023-04-04T01:44:22.755Z,97112.13
2023-04-04T01:46:55.146Z,97131.63
2023-04-04T01:49:28.948Z,97104.63
2023-04-04T01:51:57.232Z,97121.00
2023-04-04T01:54:28.377Z,97124.44
2023-04-04T01:56:59.697Z,97112.44
2023-04-04T01:59:27.529Z,97062.13
2023-04-04T02:01:58.469Z,97108.06
2023-04-04T02:04:29.299Z,97115.00
2023-04-04T02:06:59.214Z,97109.59
2023-04-04T02:09:29.056Z,97114.66
2023-04-04T02:12:02.365Z,97110.56
2023-04-04T02:14:31.332Z,97119.88
2023-04-04T02:16:59.610Z,97122.44
2023-04-04T02:19:31.681Z,97084.66
2023-04-04T02:22:03.493Z,97145.53
2023-04-04T02:24:33.464Z,97120.63
2023-04-04T02:27:05.847Z,97115.28
2023-04-04T02:29:38.483Z,97127.94
2023-04-04T02:32:06.979Z,97116.78
2023-04-04T02:34:35.533Z,97116.84
2023-04-04T02:37:04.328Z,97127.19
2023-04-04T02:39:32.421Z,97043.41
2023-04-04T02:42:00.624Z,97116.06
2023-04-04T02:44:30.257Z,97117.53
2023-04-04T02:46:58.759Z,97114.34
2023-04-04T02:49:27.991Z,97099.25
2023-04-04T02:51:56.574Z,97109.03
2023-04-04T02:54:41.509Z,97060.94
2023-04-04T02:57:15.262Z,97113.91
2023-04-04T02:59:49.388Z,97106.59
2023-04-04T03:02:17.747Z,97094.38
2023-04-04T03:04:48.558Z,97101.41
2023-04-04T03:07:34.878Z,97104.88
2023-04-04T03:10:03.129Z,97096.91
2023-04-04T03:12:32.522Z,97091.28
2023-04-04T03:15:02.207Z,97096.97
2023-04-04T03:17:40.122Z,97092.13
2023-04-04T03:20:16.594Z,97090.00
2023-04-04T03:22:44.271Z,97034.72
2023-04-04T03:25:12.077Z,97095.88
2023-04-04T03:27:46.021Z,97090.09
2023-04-04T03:30:17.840Z,97091.88
2023-04-04T03:32:51.620Z,97057.59
2023-04-04T03:35:22.402Z,97091.75
2023-04-04T03:37:51.490Z,97092.34
2023-04-04T03:40:25.343Z,97065.78
2023-04-04T03:42:59.421Z,97085.97
2023-04-04T03:45:39.921Z,97024.00
2023-04-04T03:48:08.969Z,97077.03
2023-04-04T03:50:47.167Z,97092.97
2023-04-04T03:53:15.488Z,97097.09
2023-04-04T03:55:43.867Z,97095.56
2023-04-04T03:58:15.670Z,97104.53
2023-04-04T04:00:45.565Z,97106.00
2023-04-04T04:03:16.454Z,97107.63
2023-04-04T04:05:45.262Z,97096.66
2023-04-04T04:08:16.041Z,97094.50
2023-04-04T04:10:44.434Z,97099.00
2023-04-04T04:13:13.841Z,97097.00
2023-04-04T04:15:41.613Z,97104.19
2023-04-04T04:18:14.264Z,97102.75
2023-04-04T04:20:42.713Z,97107.41
2023-04-04T04:23:11.217Z,97103.63
2023-04-04T04:25:41.309Z,97104.19
2023-04-04T04:28:09.204Z,97106.16
2023-04-04T04:30:36.891Z,97090.81
2023-04-04T04:33:10.278Z,97100.41
2023-04-04T04:35:40.456Z,97104.81
2023-04-04T04:38:09.194Z,97108.16
2023-04-04T04:40:38.758Z,97108.75
2023-04-04T04:43:14.602Z,97111.81
2023-04-04T04:45:43.024Z,97117.81
2023-04-04T04:48:13.966Z,97113.25
2023-04-04T04:50:46.313Z,97061.97
2023-04-04T04:53:20.718Z,97113.44
2023-04-04T04:55:49.972Z,97113.38
2023-04-04T04:58:17.962Z,97111.38
2023-04-04T05:00:46.101Z,97113.63
2023-04-04T05:03:14.396Z,97115.06
2023-04-04T05:05:48.195Z,97117.72
2023-04-04T05:08:20.792Z,97109.47
2023-04-04T05:10:49.419Z,97114.34
2023-04-04T05:13:18.563Z,97106.41
2023-04-04T05:15:49.403Z,97112.66
2023-04-04T05:18:18.832Z,97118.31
2023-04-04T05:20:53.831Z,97120.66
2023-04-04T05:23:22.677Z,97123.13
2023-04-04T05:25:54.100Z,97123.41
2023-04-04T05:28:24.051Z,97120.59
2023-04-04T05:30:53.613Z,97123.06
2023-04-04T05:33:22.061Z,97123.34
2023-04-04T05:35:50.814Z,97121.53
2023-04-04T05:38:21.022Z,97124.97
2023-04-04T05:40:48.849Z,97120.94
2023-04-04T05:43:17.213Z,97123.28
2023-04-04T05:45:53.922Z,97114.81
2023-04-04T05:48:23.320Z,97125.47
2023-04-04T05:50:59.370Z,97100.59
2023-04-04T05:53:29.175Z,97129.66
2023-04-04T05:56:01.434Z,97112.22
2023-04-04T05:58:32.446Z,97124.31
2023-04-04T06:01:01.835Z,97102.22
2023-04-04T06:03:33.894Z,97116.66
2023-04-04T06:06:25.538Z,97124.19
2023-04-04T06:08:56.009Z,97112.31
2023-04-04T06:11:30.852Z,97050.22
2023-04-04T06:14:11.079Z,97126.50
2023-04-04T06:16:39.856Z,97122.53
2023-04-04T06:19:12.022Z,97115.50
2023-04-04T06:21:40.333Z,97120.13
2023-04-04T06:24:10.842Z,97121.28
2023-04-04T06:26:39.885Z,97117.25
2023-04-04T06:29:08.335Z,97124.47
2023-04-04T06:31:36.659Z,97127.28
2023-04-04T06:34:04.499Z,97088.50
2023-04-04T06:36:39.595Z,97120.28
2023-04-04T06:39:11.707Z,97108.97
2023-04-04T06:41:41.330Z,97094.69
2023-04-04T06:44:09.229Z,97100.75
2023-04-04T06:46:40.464Z,97081.78
2023-04-04T06:49:09.059Z,97104.38
2023-04-04T06:51:37.867Z,97063.66
2023-04-04T06:54:12.006Z,97094.69
2023-04-04T06:56:42.421Z,97097.06
2023-04-04T06:59:13.350Z,97115.75
2023-04-04T07:01:44.958Z,97113.72
2023-04-04T07:04:13.279Z,97097.88
2023-04-04T07:06:41.249Z,97098.50
2023-04-04T07:09:22.021Z,97087.72
2023-04-04T07:11:58.844Z,96866.91
2023-04-04T07:14:29.615Z,97119.91
2023-04-04T07:17:07.950Z,97117.91
2023-04-04T07:19:43.692Z,97094.56
2023-04-04T07:22:15.699Z,97103.78
2023-04-04T07:24:51.454Z,97117.38
2023-04-04T07:27:22.731Z,97120.75
2023-04-04T07:29:50.953Z,97116.78
2023-04-04T07:32:24.271Z,97117.59
2023-04-04T07:34:58.829Z,97073.47
2023-04-04T07:37:31.858Z,97116.81
2023-04-04T07:40:08.500Z,97112.00
2023-04-04T07:42:52.689Z,97113.78
2023-04-04T07:45:22.067Z,97111.81
2023-04-04T07:47:52.972Z,97053.25
2023-04-04T07:50:24.845Z,97071.81
2023-04-04T07:52:56.351Z,97106.72
2023-04-04T07:55:27.467Z,97149.75
2023-04-04T07:57:59.864Z,97108.72
2023-04-04T08:00:31.715Z,97095.88
2023-04-04T08:03:04.566Z,97107.84
2023-04-04T08:05:32.974Z,97094.69
2023-04-04T08:08:03.753Z,97108.78
2023-04-04T08:10:33.581Z,97030.78
2023-04-04T08:13:07.339Z,96996.94
2023-04-04T08:15:36.863Z,97096.16
2023-04-04T08:18:13.233Z,97098.78
2023-04-04T08:20:42.546Z,97094.34
2023-04-04T08:23:14.199Z,97101.19
2023-04-04T08:25:46.085Z,97068.41
2023-04-04T08:28:16.399Z,97091.94
2023-04-04T08:30:45.809Z,97085.41
2023-04-04T08:33:14.446Z,97092.72
2023-04-04T08:35:43.899Z,97060.88
2023-04-04T08:38:17.013Z,97067.13
2023-04-04T08:40:51.822Z,97084.84
2023-04-04T08:43:23.872Z,97085.34
2023-04-04T08:45:56.109Z,97033.47
2023-04-04T08:48:32.876Z,97046.50
2023-04-04T08:51:06.944Z,97090.16
2023-04-04T08:53:40.374Z,97046.19
2023-04-04T08:56:17.686Z,97078.81
2023-04-04T08:58:47.467Z,97093.69
2023-04-04T09:01:16.611Z,97063.75
2023-04-04T09:03:47.369Z,97064.25
2023-04-04T09:06:15.733Z,97015.56
2023-04-04T09:08:47.340Z,97086.13
2023-04-04T09:11:21.266Z,97093.22
2023-04-04T09:14:01.791Z,97069.53
2023-04-04T09:16:30.061Z,97088.94
2023-04-04T09:19:01.300Z,97025.38
2023-04-04T09:21:34.944Z,96836.47
2023-04-04T09:24:05.207Z,97011.59
2023-04-04T09:26:48.484Z,97084.94
2023-04-04T09:29:20.934Z,97042.13
2023-04-04T09:31:49.638Z,97080.66
2023-04-04T09:34:19.360Z,96774.06
2023-04-04T09:36:51.250Z,97070.34
2023-04-04T09:39:23.528Z,97075.28
2023-04-04T09:41:54.069Z,97084.84
2023-04-04T09:44:45.071Z,97019.50
2023-04-04T09:47:31.735Z,97082.59
2023-04-04T09:50:01.413Z,97055.34
2023-04-04T09:52:36.323Z,97070.75
2023-04-04T09:55:07.744Z,97079.97
2023-04-04T09:57:40.157Z,97079.03
2023-04-04T10:00:11.365Z,97078.91
2023-04-04T10:02:41.320Z,97050.78
2023-04-04T10:05:11.262Z,97082.50
2023-04-04T10:07:42.354Z,97073.59
2023-04-04T10:10:11.781Z,97060.75
2023-04-04T10:12:43.145Z,97078.84
2023-04-04T10:15:14.269Z,97070.41
2023-04-04T10:17:44.418Z,97064.44
2023-04-04T10:20:12.935Z,97068.72
2023-04-04T10:22:45.385Z,97048.31
2023-04-04T10:25:18.533Z,97076.19
2023-04-04T10:27:46.864Z,97073.34
2023-04-04T10:30:18.939Z,97053.25
2023-04-04T10:32:54.802Z,97058.28
2023-04-04T10:35:24.260Z,97056.88
2023-04-04T10:37:58.208Z,97055.81
2023-04-04T10:40:33.349Z,96780.06
2023-04-04T10:43:07.508Z,97057.81
2023-04-04T10:45:42.695Z,97055.50
2023-04-04T10:48:11.392Z,97061.84
2023-04-04T10:50:40.468Z,97038.44
2023-04-04T10:53:12.502Z,97067.84
2023-04-04T10:55:45.067Z,97048.38
2023-04-04T10:58:13.555Z,97044.75
2023-04-04T11:00:55.701Z,97021.41
2023-04-04T11:03:24.616Z,97064.19
2023-04-04T11:06:06.148Z,97057.16
2023-04-04T11:08:37.798Z,97055.00
2023-04-04T11:11:16.071Z,97044.06
2023-04-04T11:14:05.677Z,97038.75
2023-04-04T11:16:48.101Z,97031.09
2023-04-04T11:19:20.561Z,97055.72
2023-04-04T11:21:51.190Z,97031.44
2023-04-04T11:24:24.190Z,97046.03
2023-04-04T11:27:01.512Z,96977.94
2023-04-04T11:30:00.521Z,97003.75
2023-04-04T11:32:50.195Z,97031.75
2023-04-04T11:35:24.861Z,97034.56
2023-04-04T11:38:03.730Z,97035.19
2023-04-04T11:40:39.200Z,97010.31
2023-04-04T11:43:21.223Z,97030.66
2023-04-04T11:45:51.911Z,97024.03
2023-04-04T11:48:26.719Z,97024.31
2023-04-04T11:51:00.111Z,96986.88
2023-04-04T11:53:29.488Z,97020.41
2023-04-04T11:55:58.191Z,97012.16
2023-04-04T11:58:28.201Z,97016.41
2023-04-04T12:01:00.648Z,97022.13
2023-04-04T12:03:50.527Z,97006.09
2023-04-04T12:06:18.911Z,97002.28
2023-04-04T12:08:50.662Z,96998.50
2023-04-04T12:11:21.769Z,97007.47
2023-04-04T12:13:52.328Z,97007.69
2023-04-04T12:16:20.956Z,96950.41
2023-04-04T12:19:02.430Z,97003.09
2023-04-04T12:21:34.351Z,96959.97
2023-04-04T12:24:05.595Z,96992.97
2023-04-04T12:26:37.055Z,96989.66
2023-04-04T12:29:05.904Z,96996.69
2023-04-04T12:31:35.058Z,96993.50
2023-04-04T12:34:08.833Z,96955.31
2023-04-04T12:36:42.985Z,96996.66
2023-04-04T12:39:12.778Z,96982.75
2023-04-04T12:41:49.760Z,96980.88
2023-04-04T12:44:29.510Z,96959.28
2023-04-04T12:47:05.119Z,96973.44
2023-04-04T12:49:44.128Z,96918.59
2023-04-04T12:52:25.340Z,96973.84
2023-04-04T12:55:06.964Z,96972.91
2023-04-04T12:57:39.618Z,96957.69
2023-04-04T13:00:19.009Z,96970.66
2023-04-04T13:02:51.586Z,96959.91
2023-04-04T13:05:26.058Z,96959.72
2023-04-04T13:08:07.262Z,96961.84
2023-04-04T13:11:04.676Z,96969.91
2023-04-04T13:13:43.763Z,96970.13
2023-04-04T13:16:16.795Z,96970.97
2023-04-04T13:18:48.906Z,96953.28
2023-04-04T13:21:26.635Z,96944.94
2023-04-04T13:23:54.992Z,96948.97
2023-04-04T13:26:23.459Z,96903.91
2023-04-04T13:28:51.890Z,96946.38
2023-04-04T13:31:24.340Z,96940.19
2023-04-04T13:33:53.951Z,96937.69
2023-04-04T13:36:24.340Z,96940.97
2023-04-04T13:38:52.942Z,96932.09
2023-04-04T13:41:23.702Z,96903.56
2023-04-04T13:43:53.470Z,96920.22
2023-04-04T13:46:25.359Z,96923.44
2023-04-04T13:48:54.595Z,96891.75
2023-04-04T13:51:25.162Z,96927.06
2023-04-04T13:53:55.903Z,96997.84
2023-04-04T13:56:27.800Z,96884.63
2023-04-04T13:58:59.017Z,96914.28
2023-04-04T14:01:27.493Z,96889.34
2023-04-04T14:03:57.481Z,96913.38
2023-04-04T14:06:31.546Z,96903.06
2023-04-04T14:08:59.812Z,96915.31
2023-04-04T14:11:32.513Z,96920.97
2023-04-04T14:14:00.327Z,96904.69
2023-04-04T14:16:30.277Z,96912.47
2023-04-04T14:19:01.108Z,96907.81
2023-04-04T14:21:31.328Z,96909.91
2023-04-04T14:24:02.415Z,96913.56
2023-04-04T14:26:33.369Z,96912.19
2023-04-04T14:29:13.746Z,96921.28
2023-04-04T14:31:47.130Z,96914.41
2023-04-04T14:34:19.755Z,96900.44
2023-04-04T14:36:52.873Z,96891.09
2023-04-04T14:39:28.358Z,96850.44
2023-04-04T14:41:56.966Z,96906.81
2023-04-04T14:44:33.831Z,96658.72
2023-04-04T14:47:04.936Z,96909.91
2023-04-04T14:49:43.009Z,96908.28
2023-04-04T14:52:13.096Z,96877.94
2023-04-04T14:54:46.221Z,96864.41
2023-04-04T14:57:14.746Z,96904.56
2023-04-04T14:59:43.687Z,96838.41
2023-04-04T15:02:12.882Z,96899.53
2023-04-04T15:04:45.255Z,96847.59
2023-04-04T15:07:30.120Z,96900.28
2023-04-04T15:09:59.528Z,96864.16
2023-04-04T15:12:30.328Z,96906.53
2023-04-04T15:15:01.230Z,96806.53
2023-04-04T15:17:31.324Z,96877.31
2023-04-04T15:19:59.906Z,96907.91
2023-04-04T15:22:35.085Z,96903.34
2023-04-04T15:25:06.356Z,96901.75
2023-04-04T15:27:36.598Z,96897.13
2023-04-04T15:30:05.397Z,96822.31
2023-04-04T15:32:39.845Z,96900.06
2023-04-04T15:35:17.710Z,96898.91
2023-04-04T15:37:50.894Z,96862.28
2023-04-04T15:40:25.581Z,96901.34
2023-04-04T15:42:54.090Z,96898.59
2023-04-04T15:45:24.311Z,96901.28
2023-04-04T15:47:53.093Z,96891.47
2023-04-04T15:50:24.704Z,96885.00
2023-04-04T15:52:54.466Z,96893.31
2023-04-04T15:55:22.527Z,96818.41
2023-04-04T15:57:58.869Z,96862.56
2023-04-04T16:00:29.735Z,96890.56
2023-04-04T16:03:02.178Z,96895.56
2023-04-04T16:05:30.739Z,96886.91
2023-04-04T16:08:08.790Z,96886.63
2023-04-04T16:10:39.793Z,96892.25
2023-04-04T16:13:14.919Z,96848.94
2023-04-04T16:15:45.756Z,96717.38
2023-04-04T16:18:16.077Z,96841.78
2023-04-04T16:20:47.677Z,96888.25
2023-04-04T16:23:18.217Z,96881.31
2023-04-04T16:25:48.754Z,96876.88
2023-04-04T16:28:16.913Z,96874.31
2023-04-04T16:30:45.407Z,96855.91
2023-04-04T16:33:15.879Z,96874.22
2023-04-04T16:35:48.762Z,96882.84
2023-04-04T16:38:21.279Z,96856.28
2023-04-04T16:40:51.687Z,96857.31
2023-04-04T16:43:19.786Z,96867.81
2023-04-04T16:45:51.312Z,96867.00
2023-04-04T16:48:24.679Z,96874.03
2023-04-04T16:50:55.469Z,96862.31
2023-04-04T16:53:25.337Z,96877.78
2023-04-04T16:55:55.995Z,96873.97
2023-04-04T16:58:27.366Z,96873.47
2023-04-04T17:00:58.233Z,96861.78
2023-04-04T17:03:26.573Z,96866.13
2023-04-04T17:06:00.286Z,96870.75
2023-04-04T17:08:33.180Z,96871.59
2023-04-04T17:11:03.198Z,96865.25
2023-04-04T17:13:38.287Z,96833.31
2023-04-04T17:16:10.484Z,96871.28
2023-04-04T17:18:41.190Z,96863.34
2023-04-04T17:21:09.623Z,96884.00
2023-04-04T17:23:43.694Z,96887.34
2023-04-04T17:26:14.471Z,96883.34
2023-04-04T17:28:42.713Z,96859.22
2023-04-04T17:31:16.518Z,96882.69
2023-04-04T17:33:45.394Z,96887.09
2023-04-04T17:36:17.784Z,96885.00
2023-04-04T17:38:53.198Z,96872.66
2023-04-04T17:41:21.270Z,96877.28
2023-04-04T17:43:52.470Z,96883.63
2023-04-04T17:46:21.579Z,96878.56
2023-04-04T17:48:49.603Z,96877.88
2023-04-04T17:51:17.867Z,96791.59
2023-04-04T17:53:48.302Z,96834.59
2023-04-04T17:56:27.173Z,96944.09
2023-04-04T17:59:03.785Z,96882.66
2023-04-04T18:01:38.342Z,96781.97
2023-04-04T18:04:14.185Z,96884.25
2023-04-04T18:06:50.508Z,96774.06
2023-04-04T18:09:21.645Z,96890.09
2023-04-04T18:11:52.173Z,96836.47
2023-04-04T18:14:20.586Z,96891.16
2023-04-04T18:16:57.023Z,96808.50
2023-04-04T18:19:27.830Z,96911.09
2023-04-04T18:22:01.350Z,96893.38
2023-04-04T18:24:32.492Z,96895.75
2023-04-04T18:27:04.058Z,96893.81
2023-04-04T18:29:43.776Z,96899.53
2023-04-04T18:32:15.383Z,96903.41
2023-04-04T18:34:47.570Z,96903.84
2023-04-04T18:37:17.801Z,96910.66
2023-04-04T18:39:49.314Z,96902.63
2023-04-04T18:42:17.163Z,96795.28
2023-04-04T18:44:45.984Z,96909.63
2023-04-04T18:47:14.942Z,96711.28
2023-04-04T18:49:44.628Z,96911.66
2023-04-04T18:52:12.540Z,96847.28
2023-04-04T18:54:40.760Z,96931.28
2023-04-04T18:57:16.472Z,96919.50
2023-04-04T18:59:47.546Z,96922.22
2023-04-04T19:02:19.699Z,96910.53
2023-04-04T19:04:57.970Z,96933.28
2023-04-04T19:07:36.832Z,96924.88
2023-04-04T19:10:10.958Z,96939.81
2023-04-04T19:12:47.045Z,96939.31
2023-04-04T19:15:15.691Z,96945.28
2023-04-04T19:17:44.224Z,96851.03
2023-04-04T19:20:13.991Z,96925.97
2023-04-04T19:22:44.691Z,96942.75
2023-04-04T19:25:14.274Z,96672.59
2023-04-04T19:27:49.500Z,96943.56
2023-04-04T19:30:36.606Z,96788.63
2023-04-04T19:33:12.353Z,96937.34
2023-04-04T19:35:56.041Z,96943.19
2023-04-04T19:38:26.905Z,96943.19
2023-04-04T19:41:03.779Z,96921.31
2023-04-04T19:43:35.211Z,96916.44
2023-04-04T19:46:08.865Z,96924.22
2023-04-04T19:48:52.504Z,96829.44
2023-04-04T19:51:49.368Z,96941.28
2023-04-04T19:54:20.350Z,96953.94
2023-04-04T19:56:53.227Z,96926.38
2023-04-04T20:00:08.611Z,96951.38
2023-04-04T20:02:59.064Z,96939.28
2023-04-04T20:08:52.810Z,96957.41
2023-04-04T20:11:27.653Z,96946.75
2023-04-04T20:14:01.664Z,96960.53
2023-04-04T20:16:42.216Z,96958.56
2023-04-04T20:19:20.526Z,96956.59
2023-04-04T20:21:54.886Z,96959.66
2023-04-04T20:24:23.904Z,96639.97
2023-04-04T20:26:55.089Z,96966.69
2023-04-04T20:29:26.834Z,96967.63
2023-04-04T20:31:59.360Z,96963.41
2023-04-04T20:34:43.784Z,96962.56
2023-04-04T20:37:22.405Z,96962.28
2023-04-04T20:40:02.276Z,96963.09
2023-04-04T20:42:40.684Z,96959.38
2023-04-04T20:45:46.771Z,96953.47
2023-04-04T20:48:39.893Z,96952.22
2023-04-04T20:51:24.070Z,96962.88
2023-04-04T20:53:53.241Z,96964.44
2023-04-04T20:56:46.858Z,96962.53
2023-04-04T20:59:38.458Z,96961.53
2023-04-04T21:02:23.487Z,96952.50
2023-04-04T21:04:52.724Z,96960.31
2023-04-04T21:07:45.505Z,96959.28
2023-04-04T21:10:47.787Z,96950.94
2023-04-04T21:13:37.869Z,96954.50
2023-04-04T21:16:09.678Z,96956.69
2023-04-04T21:18:41.216Z,96953.19
2023-04-04T21:21:19.169Z,96954.97
2023-04-04T21:24:00.622Z,96949.13
2023-04-04T21:26:40.002Z,96947.84
2023-04-04T21:29:16.938Z,96955.78
2023-04-04T21:31:48.751Z,96921.66
2023-04-04T21:34:22.755Z,96962.38
2023-04-04T21:36:56.855Z,96953.09
2023-04-04T21:39:30.497Z,96951.00
2023-04-04T21:42:16.012Z,96955.16
2023-04-04T21:44:44.489Z,96950.78
2023-04-04T21:47:13.926Z,96951.66
2023-04-04T21:49:46.182Z,96952.47
2023-04-04T21:52:14.261Z,96933.50
2023-04-04T21:54:52.757Z,96957.25
2023-04-04T21:57:23.734Z,96962.97
2023-04-04T21:59:55.951Z,96950.66
2023-04-04T22:02:43.985Z,96546.03
2023-04-04T22:05:19.714Z,96959.19
2023-04-04T22:07:51.542Z,96959.41
2023-04-04T22:10:27.057Z,96956.69
2023-04-04T22:12:59.542Z,96923.81
2023-04-04T22:15:30.035Z,96918.81
2023-04-04T22:18:05.288Z,96951.34
2023-04-04T22:20:34.023Z,96954.81
2023-04-04T22:23:09.599Z,96961.53
2023-04-04T22:25:38.919Z,96955.72
2023-04-04T22:28:08.421Z,96956.31
2023-04-04T22:30:42.151Z,96918.22
2023-04-04T22:33:13.745Z,96955.53
2023-04-04T22:35:43.577Z,96969.22
2023-04-04T22:38:20.173Z,96953.88
2023-04-04T22:40:55.588Z,96935.44
2023-04-04T22:43:28.902Z,96919.13
2023-04-04T22:46:06.242Z,96945.50
2023-04-04T22:48:43.467Z,96881.16
2023-04-04T22:51:17.862Z,96953.22
2023-04-04T22:53:51.779Z,96960.03
2023-04-04T22:56:32.208Z,96957.56
2023-04-04T22:59:02.384Z,96961.84
2023-04-04T23:01:30.688Z,96895.53
2023-04-04T23:03:58.794Z,96936.03
2023-04-04T23:06:26.579Z,96942.25
2023-04-04T23:08:54.273Z,96938.22
2023-04-04T23:11:33.154Z,96937.56
2023-04-04T23:14:10.448Z,96937.84
2023-04-04T23:16:40.204Z,96937.50
2023-04-04T23:19:14.418Z,96940.28
2023-04-04T23:21:44.175Z,96938.59
2023-04-04T23:24:17.290Z,96941.59
2023-04-04T23:26:47.562Z,96934.06
2023-04-04T23:29:15.627Z,96774.91
2023-04-04T23:31:46.650Z,96930.94
2023-04-04T23:34:19.757Z,96870.59
2023-04-04T23:36:52.471Z,96925.00
2023-04-04T23:39:20.257Z,96924.69
2023-04-04T23:41:52.222Z,96915.13
2023-04-04T23:44:22.377Z,96914.88
2023-04-04T23:46:53.235Z,96772.16
2023-04-04T23:49:26.260Z,96823.94
2023-04-04T23:51:55.384Z,96827.22
2023-04-04T23:54:28.864Z,96867.91
2023-04-04T23:56:58.497Z,96895.91
2023-04-04T23:59:31.188Z,96905.31
